Aérodrome :
LOGIN :

S'inscrire | Disclaimer

   EN    FR    IT 

 










Légende :    VFR   VFR Marginal   IFR   IFR Intensif   IFR Très Intensif
Visi : 
Plafond : 
>= 8 km
>= 3000ft
5 à 8 km
1000 à 3000 ft
1500m à 5 km
500 à 1000 ft
800 à 1500m
200 à 500 ft
< 800m
< 200 ft
Symboles :   Orages  Brouillard  Fortes neiges  Fortes précipitations  Vent > 20 kt
SIGMETs :   Divers  Orages  Givrage  Turbulence  Onde Orograph.  Cendres Volcan.






- Altitude de l'aérodrome : 74 ft
- Code IATA : NDZ


ETMN - Cuxhaven Nordholz Sea AB

DERNIER METAR :
  • 020620Z 24010KT 9999 FEW008 BKN050 05/03 Q1011 BLU BLU TEMPO GRN

METARs EXPIRÉS :
  • 020520Z 24007KT 9999 SCT007 BKN050 05/03 Q1011 BLU BLU TEMPO GRN
  • 020435Z 24008KT 9999 BKN008 BKN050 05/03 Q1012 GRN BLU TEMPO GRN
  • 020420Z 23007KT 9999 SCT008 BKN047 05/03 Q1012 BLU BLU TEMPO GRN

TAF TAF ETMN
Valide du 02 à 05h jusqu'au 02 à 14h UTC


020425Z 0205/0214 25012G22KT 9999 NSW SCT012 BKN050
TEMPO 0205/0209 25015G25KT 9999 NSW BKN008 BKN050
BECMG 0208/0210 25018G28KT 9999 NSW SCT015 BKN050



MET'MAP, la Météo Aéronautique d'un coup d'oeil ! - Copyright ORBIFLY Décembre 2007 - Disclaimer

ORBIFLY MET'MAP TEAM :

Programmation & Développement : Alexandra Zaïnal
Sur une idée originale de : Baudouin d'Aumeries
Assistance à la programmation : Marc-Olivier Méhu
Soutien technique & logistique : Manuel Goepfert

Contact : metmap@orbifly.com




SOURCES & CREDITS :

   NOAA